createdAt,value
2022-11-10T00:01:51.935Z,100738.06
2022-11-10T00:06:53.408Z,100737.28
2022-11-10T00:11:55.029Z,100741.66
2022-11-10T00:17:02.229Z,100739.69
2022-11-10T00:22:03.717Z,100751.44
2022-11-10T00:27:05.272Z,100755.25
2022-11-10T00:32:07.047Z,100755.28
2022-11-10T00:37:08.500Z,100777.00
2022-11-10T00:42:09.948Z,100791.72
2022-11-10T00:47:11.638Z,100792.97
2022-11-10T00:52:13.082Z,100798.28
2022-11-10T00:57:14.541Z,100797.91
2022-11-10T01:02:16.005Z,100799.31
2022-11-10T01:07:17.472Z,100818.81
2022-11-10T01:12:18.936Z,100851.66
2022-11-10T01:17:20.381Z,100834.28
2022-11-10T01:22:21.858Z,100829.50
2022-11-10T01:27:23.339Z,100825.25
2022-11-10T01:32:24.831Z,100837.31
2022-11-10T01:37:26.291Z,100844.78
2022-11-10T01:42:46.687Z,100846.00
2022-11-10T01:47:49.602Z,100846.63
2022-11-10T01:52:52.145Z,100837.25
2022-11-10T01:57:53.612Z,100847.94
2022-11-10T02:03:12.316Z,100850.81
2022-11-10T02:08:14.863Z,100842.69
2022-11-10T02:13:16.465Z,100855.84
2022-11-10T02:18:17.928Z,100866.03
2022-11-10T02:23:31.301Z,100858.41
2022-11-10T02:28:33.574Z,100886.97
2022-11-10T02:33:35.804Z,100885.03
2022-11-10T02:38:37.263Z,100892.06
2022-11-10T02:43:38.719Z,100895.94
2022-11-10T02:48:40.180Z,100914.00
2022-11-10T02:53:41.648Z,100915.56
2022-11-10T02:58:43.104Z,100916.91
2022-11-10T03:03:44.569Z,100931.31
2022-11-10T03:08:46.050Z,100919.81
2022-11-10T03:14:00.839Z,100914.81
2022-11-10T03:19:02.838Z,100941.06
2022-11-10T03:24:04.517Z,100939.69
2022-11-10T03:29:05.972Z,100940.59
2022-11-10T03:34:07.444Z,100950.03
2022-11-10T03:39:08.908Z,100947.00
2022-11-10T03:44:10.372Z,100963.41
2022-11-10T03:49:11.834Z,100969.22
2022-11-10T03:54:13.323Z,100965.25
2022-11-10T03:59:14.881Z,100982.88
2022-11-10T04:04:34.553Z,100979.94
2022-11-10T04:09:36.028Z,100981.53
2022-11-10T04:14:55.777Z,100998.38
2022-11-10T04:19:57.251Z,100988.91
2022-11-10T04:24:58.703Z,100978.22
2022-11-10T04:30:00.166Z,101000.78
2022-11-10T04:35:01.628Z,100989.69
2022-11-10T04:40:03.183Z,100997.59
2022-11-10T04:45:04.979Z,100998.25
2022-11-10T04:50:06.736Z,101008.53
2022-11-10T04:55:08.352Z,100997.88
2022-11-10T05:00:10.526Z,101000.22
2022-11-10T05:05:11.979Z,101017.81
2022-11-10T05:10:14.119Z,101037.19
2022-11-10T05:15:15.624Z,101050.66
2022-11-10T05:20:20.898Z,101053.84
2022-11-10T05:25:22.365Z,101060.28
2022-11-10T05:30:23.820Z,101084.69
2022-11-10T05:35:25.321Z,101065.41
2022-11-10T05:40:26.955Z,101092.59
2022-11-10T05:45:28.536Z,101069.03
2022-11-10T05:50:29.992Z,101058.34
2022-11-10T05:55:31.471Z,101052.50
2022-11-10T06:00:32.996Z,101053.56
2022-11-10T06:05:35.306Z,101069.53
2022-11-10T06:10:37.016Z,101068.81
2022-11-10T06:15:38.493Z,101082.47
2022-11-10T06:20:39.953Z,101103.22
2022-11-10T06:25:41.614Z,101121.38
2022-11-10T06:30:43.092Z,101138.19
2022-11-10T06:35:45.276Z,101125.97
2022-11-10T06:40:46.733Z,101150.44
2022-11-10T06:45:48.194Z,101165.16
2022-11-10T06:50:49.651Z,101173.03
2022-11-10T06:55:51.112Z,101192.63
2022-11-10T07:00:52.587Z,101193.13
2022-11-10T07:05:54.183Z,101205.44
2022-11-10T07:10:56.252Z,101204.22
2022-11-10T07:15:57.728Z,101207.91
2022-11-10T07:20:59.202Z,101200.84
2022-11-10T07:26:01.152Z,101184.19
2022-11-10T07:31:03.174Z,101191.97
2022-11-10T07:36:05.048Z,101218.94
2022-11-10T07:41:06.518Z,101217.81
2022-11-10T07:46:08.865Z,101235.91
2022-11-10T07:51:10.344Z,101238.75
2022-11-10T07:56:11.813Z,101229.31
2022-11-10T08:01:13.322Z,101232.91
2022-11-10T08:06:14.825Z,101231.47
2022-11-10T08:11:16.327Z,101228.19
2022-11-10T08:16:18.704Z,101231.41
2022-11-10T08:21:20.166Z,101235.81
2022-11-10T08:26:21.655Z,101225.91
2022-11-10T08:31:23.169Z,101230.09
2022-11-10T08:36:24.628Z,101237.88
2022-11-10T08:41:26.109Z,101249.34
2022-11-10T08:46:27.577Z,101242.84
2022-11-10T08:51:29.065Z,101265.38
2022-11-10T08:56:31.437Z,101268.16
2022-11-10T09:01:32.939Z,101272.66
2022-11-10T09:06:34.453Z,101285.25
2022-11-10T09:11:35.964Z,101304.78
2022-11-10T09:16:37.443Z,101313.41
2022-11-10T09:21:38.914Z,101322.25
2022-11-10T09:26:40.385Z,101312.53
2022-11-10T09:31:44.066Z,101333.75
2022-11-10T09:36:45.514Z,101331.88
2022-11-10T09:41:47.215Z,101334.66
2022-11-10T09:47:12.108Z,101353.56
2022-11-10T09:52:13.962Z,101345.50
2022-11-10T09:57:25.692Z,101341.72
2022-11-10T10:02:38.554Z,101354.03
2022-11-10T10:08:02.386Z,101354.78
2022-11-10T10:13:25.630Z,101357.25
2022-11-10T10:18:44.984Z,101377.75
2022-11-10T10:29:16.584Z,101380.16
2022-11-10T10:34:38.247Z,101371.28
2022-11-10T10:39:44.848Z,101382.84
2022-11-10T10:45:23.914Z,101386.69
2022-11-10T10:50:33.281Z,101404.56
2022-11-10T10:55:35.420Z,101409.09
2022-11-10T11:00:44.376Z,101408.31
2022-11-10T11:06:06.011Z,101413.59
2022-11-10T11:11:08.188Z,101414.88
2022-11-10T11:16:12.119Z,101408.31
2022-11-10T11:21:20.912Z,101405.72
2022-11-10T11:26:44.051Z,101419.34
2022-11-10T11:31:52.140Z,101414.19
2022-11-10T11:37:18.005Z,101420.97
2022-11-10T11:42:25.818Z,101431.75
2022-11-10T11:48:05.951Z,101431.56
2022-11-10T11:53:18.250Z,101428.34
2022-11-10T11:58:44.995Z,101446.59
2022-11-10T12:04:10.268Z,101466.69
2022-11-10T12:09:47.233Z,101460.88
2022-11-10T12:15:07.725Z,101473.28
2022-11-10T12:20:33.715Z,101482.28
2022-11-10T12:25:45.227Z,101461.69
2022-11-10T12:30:47.373Z,101478.78
2022-11-10T12:35:48.834Z,101484.56
2022-11-10T12:40:51.155Z,101455.28
2022-11-10T12:45:53.240Z,101462.56
2022-11-10T12:51:01.271Z,101463.94
2022-11-10T12:56:07.220Z,101463.06
2022-11-10T13:01:17.427Z,101450.50
2022-11-10T13:06:28.993Z,101453.75
2022-11-10T13:11:34.299Z,101461.50
2022-11-10T13:16:38.842Z,101457.72
2022-11-10T13:21:52.147Z,101462.97
2022-11-10T13:26:57.398Z,101466.19
2022-11-10T13:31:59.825Z,101446.19
2022-11-10T13:37:01.275Z,101470.34
2022-11-10T13:42:08.343Z,101484.09
2022-11-10T13:47:09.634Z,101489.09
2022-11-10T13:52:15.233Z,101493.16
2022-11-10T13:57:24.920Z,101518.97
2022-11-10T14:02:39.068Z,101525.25
2022-11-10T14:07:42.962Z,101526.88
2022-11-10T14:12:53.358Z,101543.00
2022-11-10T14:17:55.245Z,101557.88
2022-11-10T14:22:56.768Z,101550.78
2022-11-10T14:27:58.716Z,101557.72
2022-11-10T14:33:04.487Z,101577.44
2022-11-10T14:38:06.645Z,101558.78
2022-11-10T14:43:33.531Z,101579.19
2022-11-10T14:48:36.748Z,101592.44
2022-11-10T14:53:39.347Z,101591.19
2022-11-10T14:58:42.098Z,101551.97
2022-11-10T15:03:43.577Z,101558.78
2022-11-10T15:08:45.044Z,101593.81
2022-11-10T15:13:46.504Z,101603.78
2022-11-10T15:18:49.100Z,101608.56
2022-11-10T15:23:54.391Z,101612.88
2022-11-10T15:28:55.863Z,101601.13
2022-11-10T15:33:58.913Z,101607.50
2022-11-10T15:39:12.193Z,101618.53
2022-11-10T15:44:24.187Z,101622.22
2022-11-10T15:49:27.645Z,101638.63
2022-11-10T15:54:33.199Z,101638.25
2022-11-10T15:59:34.650Z,101629.66
2022-11-10T16:04:36.103Z,101620.22
2022-11-10T16:09:37.598Z,101620.13
2022-11-10T16:14:39.058Z,101630.06
2022-11-10T16:19:40.513Z,101625.31
2022-11-10T16:24:41.993Z,101627.28
2022-11-10T16:29:43.503Z,101616.59
2022-11-10T16:34:44.961Z,101611.53
2022-11-10T16:39:46.415Z,101625.19
2022-11-10T16:44:47.920Z,101627.28
2022-11-10T16:49:50.852Z,101627.97
2022-11-10T16:54:52.343Z,101650.97
2022-11-10T16:59:53.835Z,101651.97
2022-11-10T17:04:55.329Z,101650.66
2022-11-10T17:09:56.891Z,101666.44
2022-11-10T17:14:58.382Z,101646.00
2022-11-10T17:19:59.970Z,101664.53
2022-11-10T17:25:01.451Z,101659.75
2022-11-10T17:30:03.067Z,101687.41
2022-11-10T17:35:04.820Z,101679.56
2022-11-10T17:40:35.422Z,101674.31
2022-11-10T17:45:36.925Z,101701.88
2022-11-10T17:50:38.871Z,101684.69
2022-11-10T17:55:40.326Z,101685.19
2022-11-10T18:00:41.861Z,101676.69
2022-11-10T18:05:43.459Z,101684.53
2022-11-10T18:10:51.607Z,101699.66
2022-11-10T18:15:54.345Z,101702.38
2022-11-10T18:20:56.743Z,101680.41
2022-11-10T18:26:05.286Z,101689.56
2022-11-10T18:31:11.276Z,101690.28
2022-11-10T18:36:12.790Z,101681.72
2022-11-10T18:41:32.898Z,101685.53
2022-11-10T18:46:34.387Z,101677.50
2022-11-10T18:51:35.959Z,101703.41
2022-11-10T18:56:37.618Z,101682.94
2022-11-10T19:01:39.104Z,101670.41
2022-11-10T19:06:40.728Z,101676.19
2022-11-10T19:11:43.700Z,101688.81
2022-11-10T19:16:45.178Z,101695.94
2022-11-10T19:21:46.655Z,101719.81
2022-11-10T19:26:51.253Z,101710.34
2022-11-10T19:31:52.715Z,101731.16
2022-11-10T19:36:54.307Z,101736.91
2022-11-10T19:41:55.771Z,101728.88
2022-11-10T19:46:57.276Z,101723.34
2022-11-10T19:51:58.768Z,101719.09
2022-11-10T19:57:01.131Z,101705.84
2022-11-10T20:02:02.626Z,101707.72
2022-11-10T20:07:22.587Z,101716.38
2022-11-10T20:12:25.064Z,101735.00
2022-11-10T20:17:26.540Z,101747.75
2022-11-10T20:22:28.018Z,101748.28
2022-11-10T20:27:29.993Z,101729.31
2022-11-10T20:32:31.464Z,101745.00
2022-11-10T20:37:33.220Z,101730.75
2022-11-10T20:42:37.847Z,101753.25
2022-11-10T20:47:43.081Z,101734.59
2022-11-10T20:52:44.558Z,101739.69
2022-11-10T20:57:46.322Z,101735.19
2022-11-10T21:02:47.775Z,101750.06
2022-11-10T21:07:49.238Z,101756.38
2022-11-10T21:12:50.758Z,101752.06
2022-11-10T21:17:52.271Z,101751.72
2022-11-10T21:22:55.181Z,101752.84
2022-11-10T21:27:58.371Z,101741.03
2022-11-10T21:32:59.843Z,101746.00
2022-11-10T21:38:01.304Z,101752.53
2022-11-10T21:43:02.791Z,101735.47
2022-11-10T21:48:04.444Z,101754.28
2022-11-10T21:53:07.992Z,101738.28
2022-11-10T21:58:09.449Z,101745.88
2022-11-10T22:03:10.895Z,101740.56
2022-11-10T22:08:12.348Z,101744.81
2022-11-10T22:13:36.306Z,101748.16
2022-11-10T22:18:37.811Z,101775.84
2022-11-10T22:23:58.223Z,101773.75
2022-11-10T22:28:59.728Z,101796.41
2022-11-10T22:34:01.208Z,101785.47
2022-11-10T22:39:03.963Z,101779.97
2022-11-10T22:44:06.182Z,101792.63
2022-11-10T22:49:08.780Z,101792.34
2022-11-10T22:54:14.421Z,101834.72
2022-11-10T22:59:15.904Z,101798.16
2022-11-10T23:04:17.418Z,101820.84
2022-11-10T23:09:18.867Z,101807.59
2022-11-10T23:14:20.340Z,101812.81
2022-11-10T23:19:21.800Z,101811.25
2022-11-10T23:24:25.013Z,101808.94
2022-11-10T23:29:26.487Z,101819.19
2022-11-10T23:34:27.945Z,101828.81
2022-11-10T23:39:29.412Z,101791.91
2022-11-10T23:44:30.862Z,101808.53
2022-11-10T23:49:32.312Z,101820.72
2022-11-10T23:54:33.793Z,101817.50
2022-11-10T23:59:35.248Z,101837.00
